sensor_id;sensor_type;location;lat;lon;timestamp;pressure;altitude;pressure_sealevel;temperature;humidity
73633;BME280;61927;50.080;14.418;2022-12-07T00:01:46;99209.44;;;4.92;69.12
73633;BME280;61927;50.080;14.418;2022-12-07T00:04:15;99207.78;;;4.90;69.25
73633;BME280;61927;50.080;14.418;2022-12-07T00:06:43;99205.41;;;4.83;69.68
73633;BME280;61927;50.080;14.418;2022-12-07T00:09:11;99208.97;;;4.82;68.46
73633;BME280;61927;50.080;14.418;2022-12-07T00:11:37;99204.03;;;4.75;68.98
73633;BME280;61927;50.080;14.418;2022-12-07T00:14:05;99205.66;;;4.77;70.27
73633;BME280;61927;50.080;14.418;2022-12-07T00:16:33;99202.13;;;4.78;69.41
73633;BME280;61927;50.080;14.418;2022-12-07T00:18:58;99202.38;;;4.72;69.23
73633;BME280;61927;50.080;14.418;2022-12-07T00:21:27;99204.94;;;4.74;69.90
73633;BME280;61927;50.080;14.418;2022-12-07T00:23:53;99200.28;;;4.80;69.25
73633;BME280;61927;50.080;14.418;2022-12-07T00:26:24;99196.53;;;4.86;69.66
73633;BME280;61927;50.080;14.418;2022-12-07T00:28:53;99192.06;;;4.88;69.08
73633;BME280;61927;50.080;14.418;2022-12-07T00:31:21;99188.59;;;4.88;69.11
73633;BME280;61927;50.080;14.418;2022-12-07T00:33:46;99189.91;;;4.77;69.63
73633;BME280;61927;50.080;14.418;2022-12-07T00:36:14;99197.13;;;4.72;70.03
73633;BME280;61927;50.080;14.418;2022-12-07T00:38:41;99198.09;;;4.70;69.69
73633;BME280;61927;50.080;14.418;2022-12-07T00:41:26;99191.81;;;4.74;69.61
73633;BME280;61927;50.080;14.418;2022-12-07T00:43:52;99192.47;;;4.79;68.60
73633;BME280;61927;50.080;14.418;2022-12-07T00:46:19;99194.19;;;4.80;69.12
73633;BME280;61927;50.080;14.418;2022-12-07T00:48:45;99188.13;;;4.78;69.90
73633;BME280;61927;50.080;14.418;2022-12-07T00:51:12;99192.41;;;4.80;69.65
73633;BME280;61927;50.080;14.418;2022-12-07T00:53:37;99195.88;;;4.81;68.68
73633;BME280;61927;50.080;14.418;2022-12-07T00:56:07;99190.50;;;4.84;69.42
73633;BME280;61927;50.080;14.418;2022-12-07T00:58:33;99193.19;;;4.82;69.88
73633;BME280;61927;50.080;14.418;2022-12-07T01:01:01;99185.69;;;4.73;69.40
73633;BME280;61927;50.080;14.418;2022-12-07T01:03:27;99187.59;;;4.70;69.27
73633;BME280;61927;50.080;14.418;2022-12-07T01:05:54;99198.31;;;4.65;69.48
73633;BME280;61927;50.080;14.418;2022-12-07T01:08:21;99198.97;;;4.70;69.54
73633;BME280;61927;50.080;14.418;2022-12-07T01:10:47;99194.31;;;4.77;69.24
73633;BME280;61927;50.080;14.418;2022-12-07T01:13:13;99199.56;;;4.77;69.03
73633;BME280;61927;50.080;14.418;2022-12-07T01:15:41;99194.19;;;4.80;69.75
73633;BME280;61927;50.080;14.418;2022-12-07T01:18:07;99191.53;;;4.80;68.94
73633;BME280;61927;50.080;14.418;2022-12-07T01:20:32;99196.00;;;4.78;68.49
73633;BME280;61927;50.080;14.418;2022-12-07T01:22:58;99191.81;;;4.74;69.62
73633;BME280;61927;50.080;14.418;2022-12-07T01:25:24;99202.25;;;4.75;69.69
73633;BME280;61927;50.080;14.418;2022-12-07T01:27:49;99203.84;;;4.79;69.41
73633;BME280;61927;50.080;14.418;2022-12-07T01:30:15;99194.03;;;4.83;69.64
73633;BME280;61927;50.080;14.418;2022-12-07T01:32:40;99190.56;;;4.82;69.19
73633;BME280;61927;50.080;14.418;2022-12-07T01:35:06;99186.94;;;4.85;68.66
73633;BME280;61927;50.080;14.418;2022-12-07T01:37:36;99186.81;;;4.88;68.37
73633;BME280;61927;50.080;14.418;2022-12-07T01:40:04;99191.22;;;4.88;68.25
73633;BME280;61927;50.080;14.418;2022-12-07T01:42:30;99177.28;;;4.85;68.73
73633;BME280;61927;50.080;14.418;2022-12-07T01:45:36;99176.16;;;4.71;68.92
73633;BME280;61927;50.080;14.418;2022-12-07T01:48:04;99177.88;;;4.72;69.11
73633;BME280;61927;50.080;14.418;2022-12-07T01:50:30;99175.31;;;4.70;68.59
73633;BME280;61927;50.080;14.418;2022-12-07T01:53:02;99181.16;;;4.77;68.34
73633;BME280;61927;50.080;14.418;2022-12-07T01:55:29;99174.84;;;4.81;68.03
73633;BME280;61927;50.080;14.418;2022-12-07T01:57:55;99179.06;;;4.85;68.09
73633;BME280;61927;50.080;14.418;2022-12-07T02:00:21;99172.16;;;4.82;69.11
73633;BME280;61927;50.080;14.418;2022-12-07T02:02:57;99179.25;;;4.80;68.06
73633;BME280;61927;50.080;14.418;2022-12-07T02:05:26;99178.41;;;4.80;68.64
73633;BME280;61927;50.080;14.418;2022-12-07T02:07:53;99175.97;;;4.75;68.08
73633;BME280;61927;50.080;14.418;2022-12-07T02:10:22;99173.53;;;4.71;69.25
73633;BME280;61927;50.080;14.418;2022-12-07T02:13:18;99176.81;;;4.76;68.80
73633;BME280;61927;50.080;14.418;2022-12-07T02:18:23;99172.56;;;4.73;68.38
73633;BME280;61927;50.080;14.418;2022-12-07T02:21:32;99166.31;;;4.76;68.17
73633;BME280;61927;50.080;14.418;2022-12-07T02:32:40;99167.88;;;4.60;68.35
73633;BME280;61927;50.080;14.418;2022-12-07T02:37:40;99170.97;;;4.69;68.61
73633;BME280;61927;50.080;14.418;2022-12-07T02:40:17;99180.50;;;4.72;68.31
73633;BME280;61927;50.080;14.418;2022-12-07T02:42:49;99173.41;;;4.74;68.14
73633;BME280;61927;50.080;14.418;2022-12-07T02:45:20;99164.59;;;4.75;67.81
73633;BME280;61927;50.080;14.418;2022-12-07T02:47:48;99168.03;;;4.77;67.85
73633;BME280;61927;50.080;14.418;2022-12-07T02:50:19;99171.69;;;4.73;68.18
73633;BME280;61927;50.080;14.418;2022-12-07T02:52:45;99171.69;;;4.73;68.47
73633;BME280;61927;50.080;14.418;2022-12-07T02:55:11;99170.78;;;4.74;68.22
73633;BME280;61927;50.080;14.418;2022-12-07T03:00:19;99162.97;;;4.72;68.40
73633;BME280;61927;50.080;14.418;2022-12-07T03:03:12;99159.59;;;4.69;67.98
73633;BME280;61927;50.080;14.418;2022-12-07T03:08:31;99149.81;;;4.72;67.95
73633;BME280;61927;50.080;14.418;2022-12-07T03:11:03;99149.81;;;4.72;67.94
73633;BME280;61927;50.080;14.418;2022-12-07T03:13:58;99153.38;;;4.71;67.64
73633;BME280;61927;50.080;14.418;2022-12-07T03:16:28;99151.41;;;4.76;67.23
73633;BME280;61927;50.080;14.418;2022-12-07T03:19:01;99144.50;;;4.74;67.38
73633;BME280;61927;50.080;14.418;2022-12-07T03:21:38;99148.03;;;4.73;66.79
73633;BME280;61927;50.080;14.418;2022-12-07T03:24:10;99145.75;;;4.65;67.47
73633;BME280;61927;50.080;14.418;2022-12-07T03:26:41;99146.06;;;4.58;68.02
73633;BME280;61927;50.080;14.418;2022-12-07T03:29:12;99143.31;;;4.61;67.54
73633;BME280;61927;50.080;14.418;2022-12-07T03:31:42;99142.19;;;4.66;67.65
73633;BME280;61927;50.080;14.418;2022-12-07T03:34:24;99135.94;;;4.69;67.08
73633;BME280;61927;50.080;14.418;2022-12-07T03:39:38;99135.81;;;4.72;67.88
73633;BME280;61927;50.080;14.418;2022-12-07T03:42:06;99122.47;;;4.76;67.33
73633;BME280;61927;50.080;14.418;2022-12-07T03:44:34;99126.09;;;4.74;67.78
73633;BME280;61927;50.080;14.418;2022-12-07T03:50:02;99112.31;;;4.69;67.74
73633;BME280;61927;50.080;14.418;2022-12-07T03:52:50;99117.75;;;4.64;66.88
73633;BME280;61927;50.080;14.418;2022-12-07T03:57:46;99116.63;;;4.70;66.92
73633;BME280;61927;50.080;14.418;2022-12-07T04:00:13;99114.84;;;4.70;66.58
73633;BME280;61927;50.080;14.418;2022-12-07T04:02:40;99117.56;;;4.69;67.48
73633;BME280;61927;50.080;14.418;2022-12-07T04:05:07;99120.97;;;4.71;67.30
73633;BME280;61927;50.080;14.418;2022-12-07T04:07:32;99117.28;;;4.75;67.29
73633;BME280;61927;50.080;14.418;2022-12-07T04:09:58;99123.53;;;4.72;67.29
73633;BME280;61927;50.080;14.418;2022-12-07T04:12:24;99115.78;;;4.69;67.40
73633;BME280;61927;50.080;14.418;2022-12-07T04:14:49;99115.00;;;4.67;67.61
73633;BME280;61927;50.080;14.418;2022-12-07T04:17:15;99109.81;;;4.66;67.08
73633;BME280;61927;50.080;14.418;2022-12-07T04:19:41;99105.28;;;4.69;67.15
73633;BME280;61927;50.080;14.418;2022-12-07T04:22:06;99108.75;;;4.70;67.72
73633;BME280;61927;50.080;14.418;2022-12-07T04:24:33;99109.59;;;4.70;67.17
73633;BME280;61927;50.080;14.418;2022-12-07T04:26:58;99104.53;;;4.66;67.37
73633;BME280;61927;50.080;14.418;2022-12-07T04:29:25;99114.34;;;4.62;67.01
73633;BME280;61927;50.080;14.418;2022-12-07T04:31:51;99111.13;;;4.56;67.67
73633;BME280;61927;50.080;14.418;2022-12-07T04:34:17;99109.47;;;4.53;67.99
73633;BME280;61927;50.080;14.418;2022-12-07T04:36:44;99106.91;;;4.51;67.37
73633;BME280;61927;50.080;14.418;2022-12-07T04:39:38;99112.38;;;4.47;68.17
73633;BME280;61927;50.080;14.418;2022-12-07T04:42:03;99113.53;;;4.40;67.75
73633;BME280;61927;50.080;14.418;2022-12-07T04:44:29;99113.69;;;4.37;68.79
73633;BME280;61927;50.080;14.418;2022-12-07T04:46:56;99116.22;;;4.38;68.82
73633;BME280;61927;50.080;14.418;2022-12-07T04:49:23;99119.00;;;4.35;69.21
73633;BME280;61927;50.080;14.418;2022-12-07T04:51:49;99107.03;;;4.28;68.62
73633;BME280;61927;50.080;14.418;2022-12-07T04:54:16;99112.47;;;4.24;68.65
73633;BME280;61927;50.080;14.418;2022-12-07T04:56:41;99108.34;;;4.18;68.80
73633;BME280;61927;50.080;14.418;2022-12-07T04:59:09;99117.19;;;4.15;68.71
73633;BME280;61927;50.080;14.418;2022-12-07T05:01:35;99117.19;;;4.15;69.05
73633;BME280;61927;50.080;14.418;2022-12-07T05:04:01;99116.47;;;4.12;69.17
73633;BME280;61927;50.080;14.418;2022-12-07T05:06:26;99105.34;;;4.05;68.76
73633;BME280;61927;50.080;14.418;2022-12-07T05:08:52;99116.03;;;4.01;69.21
73633;BME280;61927;50.080;14.418;2022-12-07T05:11:18;99118.91;;;3.95;69.24
73633;BME280;61927;50.080;14.418;2022-12-07T05:14:03;99119.84;;;3.94;69.90
73633;BME280;61927;50.080;14.418;2022-12-07T05:16:29;99115.63;;;3.89;69.58
73633;BME280;61927;50.080;14.418;2022-12-07T05:18:55;99120.09;;;3.87;69.77
73633;BME280;61927;50.080;14.418;2022-12-07T05:21:21;99118.31;;;3.88;70.14
73633;BME280;61927;50.080;14.418;2022-12-07T05:23:47;99118.44;;;3.85;70.44
73633;BME280;61927;50.080;14.418;2022-12-07T05:26:13;99115.06;;;3.81;70.01
73633;BME280;61927;50.080;14.418;2022-12-07T05:28:38;99116.97;;;3.78;69.69
73633;BME280;61927;50.080;14.418;2022-12-07T05:31:04;99109.94;;;3.78;70.62
73633;BME280;61927;50.080;14.418;2022-12-07T05:33:30;99111.97;;;3.72;69.95
73633;BME280;61927;50.080;14.418;2022-12-07T05:35:55;99105.00;;;3.71;69.83
73633;BME280;61927;50.080;14.418;2022-12-07T05:38:21;99105.31;;;3.63;69.67
73633;BME280;61927;50.080;14.418;2022-12-07T05:40:46;99113.41;;;3.57;70.20
73633;BME280;61927;50.080;14.418;2022-12-07T05:43:12;99113.47;;;3.55;69.57
73633;BME280;61927;50.080;14.418;2022-12-07T05:45:37;99108.22;;;3.55;70.47
73633;BME280;61927;50.080;14.418;2022-12-07T05:48:03;99108.22;;;3.55;69.82
73633;BME280;61927;50.080;14.418;2022-12-07T05:50:29;99108.47;;;3.49;70.51
73633;BME280;61927;50.080;14.418;2022-12-07T05:52:54;99110.28;;;3.47;69.96
73633;BME280;61927;50.080;14.418;2022-12-07T05:55:20;99112.06;;;3.47;69.81
73633;BME280;61927;50.080;14.418;2022-12-07T05:57:46;99110.53;;;3.41;70.30
73633;BME280;61927;50.080;14.418;2022-12-07T06:00:31;99111.84;;;3.30;70.67
73633;BME280;61927;50.080;14.418;2022-12-07T06:02:57;99106.72;;;3.27;70.69
73633;BME280;61927;50.080;14.418;2022-12-07T06:05:23;99116.59;;;3.20;69.89
73633;BME280;61927;50.080;14.418;2022-12-07T06:07:49;99111.56;;;3.14;70.38
73633;BME280;61927;50.080;14.418;2022-12-07T06:10:14;99108.84;;;3.17;69.72
73633;BME280;61927;50.080;14.418;2022-12-07T06:12:40;99112.53;;;3.11;69.98
73633;BME280;61927;50.080;14.418;2022-12-07T06:15:09;99114.47;;;3.06;69.76
73633;BME280;61927;50.080;14.418;2022-12-07T06:17:38;99111.06;;;3.04;69.53
73633;BME280;61927;50.080;14.418;2022-12-07T06:20:05;99105.00;;;3.02;69.32
73633;BME280;61927;50.080;14.418;2022-12-07T06:22:31;99109.41;;;3.02;69.54
73633;BME280;61927;50.080;14.418;2022-12-07T06:24:56;99104.38;;;2.96;69.34
73633;BME280;61927;50.080;14.418;2022-12-07T06:27:22;99104.44;;;2.94;69.54
73633;BME280;61927;50.080;14.418;2022-12-07T06:29:48;99098.28;;;2.95;68.98
73633;BME280;61927;50.080;14.418;2022-12-07T06:32:13;99103.47;;;2.97;68.91
73633;BME280;61927;50.080;14.418;2022-12-07T06:34:39;99115.59;;;2.99;69.30
73633;BME280;61927;50.080;14.418;2022-12-07T06:37:05;99110.09;;;3.07;68.70
73633;BME280;61927;50.080;14.418;2022-12-07T06:39:31;99102.22;;;3.07;69.13
73633;BME280;61927;50.080;14.418;2022-12-07T06:41:57;99107.56;;;3.04;69.40
73633;BME280;61927;50.080;14.418;2022-12-07T06:44:23;99101.25;;;3.09;69.51
73633;BME280;61927;50.080;14.418;2022-12-07T06:46:50;99104.72;;;3.10;69.76
73633;BME280;61927;50.080;14.418;2022-12-07T06:49:16;99094.19;;;3.11;70.04
73633;BME280;61927;50.080;14.418;2022-12-07T06:51:42;99107.19;;;3.14;70.19
73633;BME280;61927;50.080;14.418;2022-12-07T06:54:09;99112.38;;;3.16;69.65
73633;BME280;61927;50.080;14.418;2022-12-07T06:56:35;99111.63;;;3.12;70.32
73633;BME280;61927;50.080;14.418;2022-12-07T06:59:01;99113.44;;;3.10;69.93
73633;BME280;61927;50.080;14.418;2022-12-07T07:01:28;99107.88;;;3.19;70.12
73633;BME280;61927;50.080;14.418;2022-12-07T07:03:53;99107.56;;;3.27;69.26
73633;BME280;61927;50.080;14.418;2022-12-07T07:06:19;99116.25;;;3.29;69.65
73633;BME280;61927;50.080;14.418;2022-12-07T07:08:45;99109.34;;;3.27;69.56
73633;BME280;61927;50.080;14.418;2022-12-07T07:11:10;99105.75;;;3.29;69.32
73633;BME280;61927;50.080;14.418;2022-12-07T07:13:36;99108.31;;;3.31;68.81
73633;BME280;61927;50.080;14.418;2022-12-07T07:16:02;99103.25;;;3.26;68.93
73633;BME280;61927;50.080;14.418;2022-12-07T07:18:28;99107.00;;;3.19;68.96
73633;BME280;61927;50.080;14.418;2022-12-07T07:20:54;99102.84;;;3.13;68.82
73633;BME280;61927;50.080;14.418;2022-12-07T07:23:21;99089.84;;;3.10;69.50
73633;BME280;61927;50.080;14.418;2022-12-07T07:25:47;99099.53;;;3.08;69.75
73633;BME280;61927;50.080;14.418;2022-12-07T07:28:12;99097.09;;;3.04;69.92
73633;BME280;61927;50.080;14.418;2022-12-07T07:30:38;99105.00;;;3.02;69.68
73633;BME280;61927;50.080;14.418;2022-12-07T07:33:04;99105.81;;;3.04;69.74
73633;BME280;61927;50.080;14.418;2022-12-07T07:35:32;99108.38;;;3.06;70.07
73633;BME280;61927;50.080;14.418;2022-12-07T07:37:58;99113.63;;;3.06;69.74
73633;BME280;61927;50.080;14.418;2022-12-07T07:40:24;99115.38;;;3.05;69.74
73633;BME280;61927;50.080;14.418;2022-12-07T07:42:51;99119.88;;;3.02;69.93
73633;BME280;61927;50.080;14.418;2022-12-07T07:45:18;99107.56;;;3.04;70.06
73633;BME280;61927;50.080;14.418;2022-12-07T07:47:44;99114.47;;;3.06;69.48
73633;BME280;61927;50.080;14.418;2022-12-07T07:50:10;99112.75;;;3.05;69.61
73633;BME280;61927;50.080;14.418;2022-12-07T07:52:36;99105.75;;;3.06;69.44
73633;BME280;61927;50.080;14.418;2022-12-07T07:55:02;99105.53;;;3.12;69.76
73633;BME280;61927;50.080;14.418;2022-12-07T07:57:27;99117.28;;;3.25;68.92
73633;BME280;61927;50.080;14.418;2022-12-07T07:59:53;99112.06;;;3.47;68.13
73633;BME280;61927;50.080;14.418;2022-12-07T08:02:20;99114.03;;;3.64;67.47
73633;BME280;61927;50.080;14.418;2022-12-07T08:04:46;99121.72;;;3.68;67.36
73633;BME280;61927;50.080;14.418;2022-12-07T08:07:13;99113.72;;;3.71;67.19
73633;BME280;61927;50.080;14.418;2022-12-07T08:09:39;99110.00;;;3.77;66.31
73633;BME280;61927;50.080;14.418;2022-12-07T08:12:05;99108.00;;;3.83;66.07
73633;BME280;61927;50.080;14.418;2022-12-07T08:14:32;99109.53;;;3.89;65.47
73633;BME280;61927;50.080;14.418;2022-12-07T08:16:59;99119.97;;;3.91;65.63
73633;BME280;61927;50.080;14.418;2022-12-07T08:19:24;99123.25;;;3.96;65.37
73633;BME280;61927;50.080;14.418;2022-12-07T08:21:50;99122.41;;;3.95;65.35
73633;BME280;61927;50.080;14.418;2022-12-07T08:24:16;99126.91;;;3.92;65.31
73633;BME280;61927;50.080;14.418;2022-12-07T08:26:42;99126.00;;;3.93;65.60
73633;BME280;61927;50.080;14.418;2022-12-07T08:29:08;99117.22;;;3.94;65.08
73633;BME280;61927;50.080;14.418;2022-12-07T08:31:34;99121.59;;;3.93;65.73
73633;BME280;61927;50.080;14.418;2022-12-07T08:34:00;99114.09;;;3.84;65.34
73633;BME280;61927;50.080;14.418;2022-12-07T08:36:25;99117.63;;;3.83;66.46
73633;BME280;61927;50.080;14.418;2022-12-07T08:38:51;99113.97;;;3.87;65.92
73633;BME280;61927;50.080;14.418;2022-12-07T08:41:16;99124.16;;;3.95;66.53
73633;BME280;61927;50.080;14.418;2022-12-07T08:43:43;99129.28;;;3.98;66.34
73633;BME280;61927;50.080;14.418;2022-12-07T08:48:50;99125.09;;;3.94;65.51
73633;BME280;61927;50.080;14.418;2022-12-07T08:51:18;99122.47;;;3.94;66.37
73633;BME280;61927;50.080;14.418;2022-12-07T08:53:45;99116.22;;;3.96;65.67
73633;BME280;61927;50.080;14.418;2022-12-07T08:56:11;99124.84;;;4.00;66.32
73633;BME280;61927;50.080;14.418;2022-12-07T08:58:38;99120.63;;;3.96;65.89
73633;BME280;61927;50.080;14.418;2022-12-07T09:01:04;99121.59;;;3.93;66.13
73633;BME280;61927;50.080;14.418;2022-12-07T09:03:30;99112.75;;;3.96;65.81
73633;BME280;61927;50.080;14.418;2022-12-07T09:05:56;99114.28;;;4.01;65.48
73633;BME280;61927;50.080;14.418;2022-12-07T09:08:30;99112.97;;;4.11;66.29
73633;BME280;61927;50.080;14.418;2022-12-07T09:10:56;99115.22;;;4.20;64.85
73633;BME280;61927;50.080;14.418;2022-12-07T09:13:22;99118.53;;;4.26;64.86
73633;BME280;61927;50.080;14.418;2022-12-07T09:15:47;99117.53;;;4.28;64.03
73633;BME280;61927;50.080;14.418;2022-12-07T09:18:13;99113.00;;;4.32;64.94
73633;BME280;61927;50.080;14.418;2022-12-07T09:20:39;99117.28;;;4.34;64.59
73633;BME280;61927;50.080;14.418;2022-12-07T09:23:07;99116.09;;;4.41;64.44
73633;BME280;61927;50.080;14.418;2022-12-07T09:25:37;99125.31;;;4.51;63.77
73633;BME280;61927;50.080;14.418;2022-12-07T09:28:03;99117.34;;;4.53;63.83
73633;BME280;61927;50.080;14.418;2022-12-07T09:30:29;99114.47;;;4.59;63.11
73633;BME280;61927;50.080;14.418;2022-12-07T09:32:56;99121.16;;;4.46;63.48
73633;BME280;61927;50.080;14.418;2022-12-07T09:35:22;99118.28;;;4.52;63.69
73633;BME280;61927;50.080;14.418;2022-12-07T09:37:49;99122.22;;;4.62;62.89
73633;BME280;61927;50.080;14.418;2022-12-07T09:40:16;99114.41;;;4.61;63.09
73633;BME280;61927;50.080;14.418;2022-12-07T09:42:45;99107.56;;;4.57;62.99
73633;BME280;61927;50.080;14.418;2022-12-07T09:45:33;99115.31;;;4.60;64.15
73633;BME280;61927;50.080;14.418;2022-12-07T09:48:00;99114.72;;;4.53;63.56
73633;BME280;61927;50.080;14.418;2022-12-07T09:50:28;99109.28;;;4.58;63.19
73633;BME280;61927;50.080;14.418;2022-12-07T09:53:02;99111.13;;;4.56;63.78
73633;BME280;61927;50.080;14.418;2022-12-07T09:55:30;99104.03;;;4.58;63.51
73633;BME280;61927;50.080;14.418;2022-12-07T09:57:57;99109.69;;;4.48;63.42
73633;BME280;61927;50.080;14.418;2022-12-07T10:00:24;99099.38;;;4.44;64.57
73633;BME280;61927;50.080;14.418;2022-12-07T10:03:01;99100.88;;;4.49;64.40
73633;BME280;61927;50.080;14.418;2022-12-07T10:05:30;99106.66;;;4.58;63.70
73633;BME280;61927;50.080;14.418;2022-12-07T10:08:03;99099.69;;;4.57;63.71
73633;BME280;61927;50.080;14.418;2022-12-07T10:10:34;99104.63;;;4.64;63.57
73633;BME280;61927;50.080;14.418;2022-12-07T10:13:06;99100.81;;;4.71;63.25
73633;BME280;61927;50.080;14.418;2022-12-07T10:15:44;99100.00;;;4.69;63.50
73633;BME280;61927;50.080;14.418;2022-12-07T10:18:30;99098.56;;;4.82;63.69
73633;BME280;61927;50.080;14.418;2022-12-07T10:23:40;99105.69;;;4.99;62.68
73633;BME280;61927;50.080;14.418;2022-12-07T10:28:50;99103.13;;;4.98;62.79
73633;BME280;61927;50.080;14.418;2022-12-07T10:31:18;99089.97;;;4.98;63.05
73633;BME280;61927;50.080;14.418;2022-12-07T10:33:55;99089.06;;;4.99;62.47
73633;BME280;61927;50.080;14.418;2022-12-07T10:36:29;99098.38;;;5.06;62.49
73633;BME280;61927;50.080;14.418;2022-12-07T10:39:18;99092.00;;;5.11;62.84
73633;BME280;61927;50.080;14.418;2022-12-07T10:41:57;99088.44;;;5.12;62.90
73633;BME280;61927;50.080;14.418;2022-12-07T10:44:26;99096.19;;;5.15;63.04
73633;BME280;61927;50.080;14.418;2022-12-07T10:49:43;99090.16;;;5.13;62.96
73633;BME280;61927;50.080;14.418;2022-12-07T10:52:36;99095.75;;;5.06;62.91
73633;BME280;61927;50.080;14.418;2022-12-07T10:55:25;99100.28;;;5.02;63.76
73633;BME280;61927;50.080;14.418;2022-12-07T11:00:24;99096.56;;;4.88;63.76
73633;BME280;61927;50.080;14.418;2022-12-07T11:11:34;99070.84;;;4.75;65.40
73633;BME280;61927;50.080;14.418;2022-12-07T11:14:15;99068.22;;;4.75;65.27
73633;BME280;61927;50.080;14.418;2022-12-07T11:17:17;99055.34;;;4.69;65.61
73633;BME280;61927;50.080;14.418;2022-12-07T11:22:26;99062.19;;;4.53;66.16
73633;BME280;61927;50.080;14.418;2022-12-07T11:25:04;99051.03;;;4.48;66.74
73633;BME280;61927;50.080;14.418;2022-12-07T11:27:45;99053.91;;;4.42;66.78
73633;BME280;61927;50.080;14.418;2022-12-07T11:30:18;99053.00;;;4.43;66.71
73633;BME280;61927;50.080;14.418;2022-12-07T11:33:17;99044.31;;;4.41;67.21
73633;BME280;61927;50.080;14.418;2022-12-07T11:36:02;99045.91;;;4.45;66.75
73633;BME280;61927;50.080;14.418;2022-12-07T11:41:22;99034.13;;;4.53;66.19
73633;BME280;61927;50.080;14.418;2022-12-07T11:43:53;99042.16;;;4.50;66.47
73633;BME280;61927;50.080;14.418;2022-12-07T11:46:24;99039.59;;;4.49;66.18
73633;BME280;61927;50.080;14.418;2022-12-07T11:51:45;99036.63;;;4.57;66.09
73633;BME280;61927;50.080;14.418;2022-12-07T11:54:20;99043.25;;;4.65;66.16
73633;BME280;61927;50.080;14.418;2022-12-07T11:56:49;99035.94;;;4.72;66.25
73633;BME280;61927;50.080;14.418;2022-12-07T11:59:25;99029.78;;;4.73;65.59
73633;BME280;61927;50.080;14.418;2022-12-07T12:02:21;99035.53;;;4.81;65.55
73633;BME280;61927;50.080;14.418;2022-12-07T12:04:59;99021.69;;;4.77;64.80
73633;BME280;61927;50.080;14.418;2022-12-07T12:07:28;99030.22;;;4.82;65.19
73633;BME280;61927;50.080;14.418;2022-12-07T12:10:06;99018.78;;;4.83;65.47
73633;BME280;61927;50.080;14.418;2022-12-07T12:12:58;99014.16;;;4.89;66.35
73633;BME280;61927;50.080;14.418;2022-12-07T12:15:41;99011.47;;;4.90;65.93
73633;BME280;61927;50.080;14.418;2022-12-07T12:18:20;99008.75;;;4.92;65.77
73633;BME280;61927;50.080;14.418;2022-12-07T12:20:55;99015.50;;;4.97;65.95
73633;BME280;61927;50.080;14.418;2022-12-07T12:23:39;99001.72;;;4.92;65.65
73633;BME280;61927;50.080;14.418;2022-12-07T12:26:08;99008.25;;;4.83;65.87
73633;BME280;61927;50.080;14.418;2022-12-07T12:29:00;99009.13;;;4.84;65.69
73633;BME280;61927;50.080;14.418;2022-12-07T12:33:57;99010.75;;;4.86;64.92
73633;BME280;61927;50.080;14.418;2022-12-07T12:44:00;99005.06;;;4.96;64.92
73633;BME280;61927;50.080;14.418;2022-12-07T12:51:44;99008.25;;;5.02;64.22
73633;BME280;61927;50.080;14.418;2022-12-07T12:54:32;99007.47;;;5.00;64.83
73633;BME280;61927;50.080;14.418;2022-12-07T12:57:20;99012.81;;;4.99;64.48
73633;BME280;61927;50.080;14.418;2022-12-07T13:02:25;99001.44;;;4.98;63.68
73633;BME280;61927;50.080;14.418;2022-12-07T13:05:00;99012.59;;;5.03;64.01
73633;BME280;61927;50.080;14.418;2022-12-07T13:10:39;99011.75;;;5.03;63.50
73633;BME280;61927;50.080;14.418;2022-12-07T13:16:36;99022.97;;;5.06;63.03
73633;BME280;61927;50.080;14.418;2022-12-07T13:18:41;99018.78;;;5.02;63.40
73633;BME280;61927;50.080;14.418;2022-12-07T13:24:18;99020.13;;;5.11;63.37
73633;BME280;61927;50.080;14.418;2022-12-07T13:31:36;99013.88;;;5.13;63.74
73633;BME280;61927;50.080;14.418;2022-12-07T13:34:26;99018.00;;;5.19;63.46
73633;BME280;61927;50.080;14.418;2022-12-07T13:36:50;99013.88;;;5.32;62.51
73633;BME280;61927;50.080;14.418;2022-12-07T13:39:23;99010.72;;;5.43;62.28
73633;BME280;61927;50.080;14.418;2022-12-07T13:41:57;99008.66;;;5.49;61.56
73633;BME280;61927;50.080;14.418;2022-12-07T13:44:25;98998.97;;;5.50;61.68
73633;BME280;61927;50.080;14.418;2022-12-07T13:47:07;98993.78;;;5.48;61.38
73633;BME280;61927;50.080;14.418;2022-12-07T13:49:46;99000.13;;;5.44;61.56
73633;BME280;61927;50.080;14.418;2022-12-07T13:52:32;98995.22;;;5.37;61.03
73633;BME280;61927;50.080;14.418;2022-12-07T13:55:14;99002.28;;;5.36;61.41
73633;BME280;61927;50.080;14.418;2022-12-07T13:57:40;99005.19;;;5.30;61.86
73633;BME280;61927;50.080;14.418;2022-12-07T14:00:16;99006.03;;;5.31;62.12
73633;BME280;61927;50.080;14.418;2022-12-07T14:05:38;99006.03;;;5.31;61.82
73633;BME280;61927;50.080;14.418;2022-12-07T14:10:53;99002.50;;;5.32;61.73
73633;BME280;61927;50.080;14.418;2022-12-07T14:13:33;99008.91;;;5.26;63.21
73633;BME280;61927;50.080;14.418;2022-12-07T14:16:33;99010.81;;;5.23;63.15
73633;BME280;61927;50.080;14.418;2022-12-07T14:19:02;99004.72;;;5.22;63.44
73633;BME280;61927;50.080;14.418;2022-12-07T14:21:30;99011.66;;;5.23;63.95
73633;BME280;61927;50.080;14.418;2022-12-07T14:24:16;99014.38;;;5.22;63.50
73633;BME280;61927;50.080;14.418;2022-12-07T14:26:44;99014.53;;;5.18;64.41
73633;BME280;61927;50.080;14.418;2022-12-07T14:29:31;99017.16;;;5.18;64.42
73633;BME280;61927;50.080;14.418;2022-12-07T14:32:21;99013.16;;;5.10;63.78
73633;BME280;61927;50.080;14.418;2022-12-07T14:37:24;99013.59;;;5.01;64.56
73633;BME280;61927;50.080;14.418;2022-12-07T14:39:50;99013.09;;;4.93;65.20
73633;BME280;61927;50.080;14.418;2022-12-07T14:42:17;99010.69;;;4.88;65.37
73633;BME280;61927;50.080;14.418;2022-12-07T14:44:42;99009.19;;;4.82;65.77
73633;BME280;61927;50.080;14.418;2022-12-07T14:47:11;99016.41;;;4.77;66.10
73633;BME280;61927;50.080;14.418;2022-12-07T14:49:37;99004.41;;;4.72;66.28
73633;BME280;61927;50.080;14.418;2022-12-07T14:52:04;99004.63;;;4.67;66.13
73633;BME280;61927;50.080;14.418;2022-12-07T14:54:32;98996.81;;;4.66;65.89